sensor_id;sensor_type;location;lat;lon;timestamp;temperature;humidity
22456;DHT22;11395;53.204;6.502;2023-04-01T00:00:55;21.40;72.20
22456;DHT22;11395;53.204;6.502;2023-04-01T00:03:22;21.40;73.20
22456;DHT22;11395;53.204;6.502;2023-04-01T00:05:49;21.30;72.60
22456;DHT22;11395;53.204;6.502;2023-04-01T00:08:16;21.30;72.60
22456;DHT22;11395;53.204;6.502;2023-04-01T00:10:42;21.30;72.00
22456;DHT22;11395;53.204;6.502;2023-04-01T00:13:09;21.30;71.70
22456;DHT22;11395;53.204;6.502;2023-04-01T00:15:35;21.20;72.20
22456;DHT22;11395;53.204;6.502;2023-04-01T00:18:03;21.20;72.10
22456;DHT22;11395;53.204;6.502;2023-04-01T00:20:30;21.20;72.30
22456;DHT22;11395;53.204;6.502;2023-04-01T00:22:56;21.20;72.70
22456;DHT22;11395;53.204;6.502;2023-04-01T00:25:22;21.20;71.80
22456;DHT22;11395;53.204;6.502;2023-04-01T00:27:48;21.20;72.30
22456;DHT22;11395;53.204;6.502;2023-04-01T00:30:16;21.30;72.20
22456;DHT22;11395;53.204;6.502;2023-04-01T00:32:42;21.10;72.00
22456;DHT22;11395;53.204;6.502;2023-04-01T00:35:09;21.10;72.30
22456;DHT22;11395;53.204;6.502;2023-04-01T00:37:36;21.10;72.30
22456;DHT22;11395;53.204;6.502;2023-04-01T00:40:07;21.10;72.70
22456;DHT22;11395;53.204;6.502;2023-04-01T00:42:33;21.10;73.20
22456;DHT22;11395;53.204;6.502;2023-04-01T00:45:35;21.10;72.10
22456;DHT22;11395;53.204;6.502;2023-04-01T00:48:10;21.10;73.00
22456;DHT22;11395;53.204;6.502;2023-04-01T00:50:39;21.00;72.20
22456;DHT22;11395;53.204;6.502;2023-04-01T00:53:07;21.00;73.60
22456;DHT22;11395;53.204;6.502;2023-04-01T00:55:36;21.00;73.40
22456;DHT22;11395;53.204;6.502;2023-04-01T00:58:07;20.80;73.60
22456;DHT22;11395;53.204;6.502;2023-04-01T01:00:36;20.90;73.90
22456;DHT22;11395;53.204;6.502;2023-04-01T01:03:02;20.90;73.40
22456;DHT22;11395;53.204;6.502;2023-04-01T01:08:22;20.90;72.80
22456;DHT22;11395;53.204;6.502;2023-04-01T01:10:52;20.90;74.60
22456;DHT22;11395;53.204;6.502;2023-04-01T01:37:16;20.60;73.00
22456;DHT22;11395;53.204;6.502;2023-04-01T01:39:48;20.60;75.00
22456;DHT22;11395;53.204;6.502;2023-04-01T01:42:17;20.60;74.70
22456;DHT22;11395;53.204;6.502;2023-04-01T01:44:45;20.60;74.50
22456;DHT22;11395;53.204;6.502;2023-04-01T01:47:14;20.60;74.10
22456;DHT22;11395;53.204;6.502;2023-04-01T01:49:42;20.60;74.30
22456;DHT22;11395;53.204;6.502;2023-04-01T01:52:09;20.50;73.90
22456;DHT22;11395;53.204;6.502;2023-04-01T01:54:36;20.50;73.20
22456;DHT22;11395;53.204;6.502;2023-04-01T01:57:09;20.60;73.10
22456;DHT22;11395;53.204;6.502;2023-04-01T01:59:40;20.50;75.50
22456;DHT22;11395;53.204;6.502;2023-04-01T02:02:10;20.50;74.40
22456;DHT22;11395;53.204;6.502;2023-04-01T02:04:38;20.40;74.60
22456;DHT22;11395;53.204;6.502;2023-04-01T02:07:19;20.40;74.80
22456;DHT22;11395;53.204;6.502;2023-04-01T02:09:48;20.40;73.90
22456;DHT22;11395;53.204;6.502;2023-04-01T02:12:16;20.40;74.30
22456;DHT22;11395;53.204;6.502;2023-04-01T02:14:51;20.40;74.70
22456;DHT22;11395;53.204;6.502;2023-04-01T02:17:21;20.40;73.40
22456;DHT22;11395;53.204;6.502;2023-04-01T02:19:54;20.30;74.70
22456;DHT22;11395;53.204;6.502;2023-04-01T02:22:28;20.40;73.40
22456;DHT22;11395;53.204;6.502;2023-04-01T02:24:58;20.30;74.90
22456;DHT22;11395;53.204;6.502;2023-04-01T02:27:25;20.30;75.20
22456;DHT22;11395;53.204;6.502;2023-04-01T02:29:52;20.30;73.90
22456;DHT22;11395;53.204;6.502;2023-04-01T02:32:19;20.40;74.20
22456;DHT22;11395;53.204;6.502;2023-04-01T02:34:47;20.40;74.80
22456;DHT22;11395;53.204;6.502;2023-04-01T02:37:14;20.30;74.60
22456;DHT22;11395;53.204;6.502;2023-04-01T02:39:41;20.30;74.30
22456;DHT22;11395;53.204;6.502;2023-04-01T02:42:09;20.30;74.00
22456;DHT22;11395;53.204;6.502;2023-04-01T02:44:35;20.20;74.20
22456;DHT22;11395;53.204;6.502;2023-04-01T02:47:02;20.20;73.50
22456;DHT22;11395;53.204;6.502;2023-04-01T02:49:28;20.20;73.80
22456;DHT22;11395;53.204;6.502;2023-04-01T02:51:54;20.20;73.80
22456;DHT22;11395;53.204;6.502;2023-04-01T02:54:21;20.20;73.80
22456;DHT22;11395;53.204;6.502;2023-04-01T02:56:47;20.10;73.80
22456;DHT22;11395;53.204;6.502;2023-04-01T02:59:13;20.10;73.60
22456;DHT22;11395;53.204;6.502;2023-04-01T03:01:39;20.20;74.00
22456;DHT22;11395;53.204;6.502;2023-04-01T03:04:05;20.10;74.00
22456;DHT22;11395;53.204;6.502;2023-04-01T03:06:32;20.10;73.80
22456;DHT22;11395;53.204;6.502;2023-04-01T03:08:58;20.10;73.80
22456;DHT22;11395;53.204;6.502;2023-04-01T03:11:26;20.10;74.00
22456;DHT22;11395;53.204;6.502;2023-04-01T03:13:52;20.20;73.90
22456;DHT22;11395;53.204;6.502;2023-04-01T03:16:19;20.10;74.30
22456;DHT22;11395;53.204;6.502;2023-04-01T03:18:45;20.00;74.20
22456;DHT22;11395;53.204;6.502;2023-04-01T03:21:17;20.00;74.20
22456;DHT22;11395;53.204;6.502;2023-04-01T03:23:44;20.00;74.10
22456;DHT22;11395;53.204;6.502;2023-04-01T03:26:10;20.00;74.40
22456;DHT22;11395;53.204;6.502;2023-04-01T03:28:37;20.00;74.50
22456;DHT22;11395;53.204;6.502;2023-04-01T03:31:03;20.00;74.60
22456;DHT22;11395;53.204;6.502;2023-04-01T03:33:36;20.00;74.40
22456;DHT22;11395;53.204;6.502;2023-04-01T03:36:03;20.00;74.40
22456;DHT22;11395;53.204;6.502;2023-04-01T03:38:33;19.90;74.40
22456;DHT22;11395;53.204;6.502;2023-04-01T03:40:59;20.10;75.30
22456;DHT22;11395;53.204;6.502;2023-04-01T03:43:26;19.90;74.50
22456;DHT22;11395;53.204;6.502;2023-04-01T03:45:53;20.00;73.80
22456;DHT22;11395;53.204;6.502;2023-04-01T03:48:20;20.10;74.20
22456;DHT22;11395;53.204;6.502;2023-04-01T03:50:47;20.10;73.80
22456;DHT22;11395;53.204;6.502;2023-04-01T03:53:15;20.30;73.20
22456;DHT22;11395;53.204;6.502;2023-04-01T03:55:43;20.40;72.80
22456;DHT22;11395;53.204;6.502;2023-04-01T03:58:09;20.60;72.30
22456;DHT22;11395;53.204;6.502;2023-04-01T04:00:36;20.80;71.90
22456;DHT22;11395;53.204;6.502;2023-04-01T04:03:02;21.00;71.50
22456;DHT22;11395;53.204;6.502;2023-04-01T04:05:33;21.10;71.00
22456;DHT22;11395;53.204;6.502;2023-04-01T04:08:00;21.30;70.50
22456;DHT22;11395;53.204;6.502;2023-04-01T04:10:26;21.50;69.90
22456;DHT22;11395;53.204;6.502;2023-04-01T04:12:52;21.70;69.60
22456;DHT22;11395;53.204;6.502;2023-04-01T04:15:20;21.90;69.20
22456;DHT22;11395;53.204;6.502;2023-04-01T04:17:47;22.00;68.60
22456;DHT22;11395;53.204;6.502;2023-04-01T04:20:14;22.00;68.90
22456;DHT22;11395;53.204;6.502;2023-04-01T04:22:41;22.20;68.20
22456;DHT22;11395;53.204;6.502;2023-04-01T04:25:08;22.20;68.00
22456;DHT22;11395;53.204;6.502;2023-04-01T04:27:35;22.30;68.00
22456;DHT22;11395;53.204;6.502;2023-04-01T04:30:08;22.30;67.80
22456;DHT22;11395;53.204;6.502;2023-04-01T04:32:35;22.30;67.90
22456;DHT22;11395;53.204;6.502;2023-04-01T04:35:02;22.30;67.20
22456;DHT22;11395;53.204;6.502;2023-04-01T04:37:28;22.30;67.40
22456;DHT22;11395;53.204;6.502;2023-04-01T04:39:55;22.40;68.10
22456;DHT22;11395;53.204;6.502;2023-04-01T04:42:21;22.40;67.40
22456;DHT22;11395;53.204;6.502;2023-04-01T04:44:49;22.50;67.50
22456;DHT22;11395;53.204;6.502;2023-04-01T04:47:15;22.60;67.00
22456;DHT22;11395;53.204;6.502;2023-04-01T04:49:41;22.70;66.80
22456;DHT22;11395;53.204;6.502;2023-04-01T04:52:09;22.90;66.70
22456;DHT22;11395;53.204;6.502;2023-04-01T04:54:35;23.00;66.20
22456;DHT22;11395;53.204;6.502;2023-04-01T04:57:03;23.20;65.90
22456;DHT22;11395;53.204;6.502;2023-04-01T04:59:34;23.40;66.00
22456;DHT22;11395;53.204;6.502;2023-04-01T05:02:06;23.50;65.70
22456;DHT22;11395;53.204;6.502;2023-04-01T05:04:36;23.70;65.60
22456;DHT22;11395;53.204;6.502;2023-04-01T05:07:03;23.80;67.00
22456;DHT22;11395;53.204;6.502;2023-04-01T05:09:29;23.90;65.80
22456;DHT22;11395;53.204;6.502;2023-04-01T05:11:57;24.00;65.50
22456;DHT22;11395;53.204;6.502;2023-04-01T05:14:24;24.10;66.40
22456;DHT22;11395;53.204;6.502;2023-04-01T05:16:57;24.10;65.60
22456;DHT22;11395;53.204;6.502;2023-04-01T05:19:24;24.10;65.30
22456;DHT22;11395;53.204;6.502;2023-04-01T05:21:50;24.10;65.40
22456;DHT22;11395;53.204;6.502;2023-04-01T05:24:16;24.10;65.30
22456;DHT22;11395;53.204;6.502;2023-04-01T05:26:43;24.10;65.60
22456;DHT22;11395;53.204;6.502;2023-04-01T05:29:09;24.10;65.90
22456;DHT22;11395;53.204;6.502;2023-04-01T05:31:36;24.10;66.80
22456;DHT22;11395;53.204;6.502;2023-04-01T05:34:04;24.10;66.20
22456;DHT22;11395;53.204;6.502;2023-04-01T05:36:30;24.00;66.30
22456;DHT22;11395;53.204;6.502;2023-04-01T05:38:57;24.00;66.40
22456;DHT22;11395;53.204;6.502;2023-04-01T05:41:25;24.10;66.70
22456;DHT22;11395;53.204;6.502;2023-04-01T05:43:51;23.90;66.90
22456;DHT22;11395;53.204;6.502;2023-04-01T05:46:55;23.90;66.00
22456;DHT22;11395;53.204;6.502;2023-04-01T05:49:24;23.80;66.70
22456;DHT22;11395;53.204;6.502;2023-04-01T05:51:51;23.80;66.80
22456;DHT22;11395;53.204;6.502;2023-04-01T05:54:19;23.70;67.60
22456;DHT22;11395;53.204;6.502;2023-04-01T05:56:46;23.80;67.90
22456;DHT22;11395;53.204;6.502;2023-04-01T05:59:12;23.70;67.40
22456;DHT22;11395;53.204;6.502;2023-04-01T06:01:39;23.70;67.90
22456;DHT22;11395;53.204;6.502;2023-04-01T06:04:05;23.60;67.80
22456;DHT22;11395;53.204;6.502;2023-04-01T06:06:32;23.60;67.50
22456;DHT22;11395;53.204;6.502;2023-04-01T06:09:25;23.50;67.40
22456;DHT22;11395;53.204;6.502;2023-04-01T06:17:41;23.50;68.20
22456;DHT22;11395;53.204;6.502;2023-04-01T06:48:09;24.10;65.00
22456;DHT22;11395;53.204;6.502;2023-04-01T06:54:25;24.20;66.50
22456;DHT22;11395;53.204;6.502;2023-04-01T06:57:38;24.20;68.20
22456;DHT22;11395;53.204;6.502;2023-04-01T07:00:31;24.20;67.90
22456;DHT22;11395;53.204;6.502;2023-04-01T07:03:34;24.30;66.30
22456;DHT22;11395;53.204;6.502;2023-04-01T07:06:11;24.20;66.50
22456;DHT22;11395;53.204;6.502;2023-04-01T07:08:45;24.10;65.10
22456;DHT22;11395;53.204;6.502;2023-04-01T07:11:25;24.00;66.30
22456;DHT22;11395;53.204;6.502;2023-04-01T07:14:25;24.00;68.10
22456;DHT22;11395;53.204;6.502;2023-04-01T07:17:17;24.00;68.20
22456;DHT22;11395;53.204;6.502;2023-04-01T07:19:47;23.90;66.20
22456;DHT22;11395;53.204;6.502;2023-04-01T07:25:18;23.80;66.60
22456;DHT22;11395;53.204;6.502;2023-04-01T07:27:55;23.70;68.20
22456;DHT22;11395;53.204;6.502;2023-04-01T07:30:24;23.80;67.30
22456;DHT22;11395;53.204;6.502;2023-04-01T07:33:08;23.60;67.70
22456;DHT22;11395;53.204;6.502;2023-04-01T07:35:44;23.70;69.00
22456;DHT22;11395;53.204;6.502;2023-04-01T07:47:18;23.50;67.60
22456;DHT22;11395;53.204;6.502;2023-04-01T08:00:55;23.20;67.60
22456;DHT22;11395;53.204;6.502;2023-04-01T08:03:43;23.10;69.90
22456;DHT22;11395;53.204;6.502;2023-04-01T08:12:42;23.10;68.30
22456;DHT22;11395;53.204;6.502;2023-04-01T08:16:20;23.10;68.90
22456;DHT22;11395;53.204;6.502;2023-04-01T08:21:45;23.50;69.40
22456;DHT22;11395;53.204;6.502;2023-04-01T08:26:59;23.70;68.90
22456;DHT22;11395;53.204;6.502;2023-04-01T08:30:20;23.80;68.40
22456;DHT22;11395;53.204;6.502;2023-04-01T08:32:57;23.90;67.40
22456;DHT22;11395;53.204;6.502;2023-04-01T08:35:38;23.90;68.30
22456;DHT22;11395;53.204;6.502;2023-04-01T08:38:14;24.00;68.50
22456;DHT22;11395;53.204;6.502;2023-04-01T08:40:58;24.00;68.00
22456;DHT22;11395;53.204;6.502;2023-04-01T09:00:46;23.90;66.70
22456;DHT22;11395;53.204;6.502;2023-04-01T09:03:36;23.80;68.80
22456;DHT22;11395;53.204;6.502;2023-04-01T09:09:09;23.70;68.70
22456;DHT22;11395;53.204;6.502;2023-04-01T09:28:24;23.30;68.10
22456;DHT22;11395;53.204;6.502;2023-04-01T09:31:15;23.30;69.80
22456;DHT22;11395;53.204;6.502;2023-04-01T09:34:30;23.30;68.30
22456;DHT22;11395;53.204;6.502;2023-04-01T09:37:25;23.20;67.60
22456;DHT22;11395;53.204;6.502;2023-04-01T09:48:38;23.10;69.70
22456;DHT22;11395;53.204;6.502;2023-04-01T10:05:45;23.30;68.30
22456;DHT22;11395;53.204;6.502;2023-04-01T10:09:27;23.30;67.70
22456;DHT22;11395;53.204;6.502;2023-04-01T10:28:18;23.40;65.80
22456;DHT22;11395;53.204;6.502;2023-04-01T10:58:36;23.20;68.70
22456;DHT22;11395;53.204;6.502;2023-04-01T11:13:34;23.00;68.90
22456;DHT22;11395;53.204;6.502;2023-04-01T11:21:50;22.90;69.30
22456;DHT22;11395;53.204;6.502;2023-04-01T11:27:47;22.90;69.00
22456;DHT22;11395;53.204;6.502;2023-04-01T11:39:11;23.50;68.60
22456;DHT22;11395;53.204;6.502;2023-04-01T11:58:45;23.90;66.50
22456;DHT22;11395;53.204;6.502;2023-04-01T12:12:40;23.80;66.70
22456;DHT22;11395;53.204;6.502;2023-04-01T12:15:28;23.80;68.70
22456;DHT22;11395;53.204;6.502;2023-04-01T12:27:10;23.60;67.20
22456;DHT22;11395;53.204;6.502;2023-04-01T12:44:00;23.40;69.40
22456;DHT22;11395;53.204;6.502;2023-04-01T12:52:14;23.30;67.80
22456;DHT22;11395;53.204;6.502;2023-04-01T13:16:54;23.00;69.60
22456;DHT22;11395;53.204;6.502;2023-04-01T13:24:55;22.90;66.10
22456;DHT22;11395;53.204;6.502;2023-04-01T13:27:34;23.10;70.00
22456;DHT22;11395;53.204;6.502;2023-04-01T13:30:18;23.20;67.50
22456;DHT22;11395;53.204;6.502;2023-04-01T13:35:35;23.50;65.60
22456;DHT22;11395;53.204;6.502;2023-04-01T13:43:34;23.80;67.30
22456;DHT22;11395;53.204;6.502;2023-04-01T13:48:50;23.80;67.00
22456;DHT22;11395;53.204;6.502;2023-04-01T14:11:39;23.80;68.40
22456;DHT22;11395;53.204;6.502;2023-04-01T14:14:42;23.80;69.00
22456;DHT22;11395;53.204;6.502;2023-04-01T14:17:29;23.70;69.20
22456;DHT22;11395;53.204;6.502;2023-04-01T14:22:42;23.60;69.20
22456;DHT22;11395;53.204;6.502;2023-04-01T14:25:25;23.60;67.30
22456;DHT22;11395;53.204;6.502;2023-04-01T14:28:21;23.60;67.20
22456;DHT22;11395;53.204;6.502;2023-04-01T14:42:02;23.30;68.30
22456;DHT22;11395;53.204;6.502;2023-04-01T14:47:04;23.20;70.00
22456;DHT22;11395;53.204;6.502;2023-04-01T14:49:41;23.20;68.50
22456;DHT22;11395;53.204;6.502;2023-04-01T14:52:16;23.20;72.20
22456;DHT22;11395;53.204;6.502;2023-04-01T14:54:46;23.10;71.80
22456;DHT22;11395;53.204;6.502;2023-04-01T15:05:31;22.90;71.70
22456;DHT22;11395;53.204;6.502;2023-04-01T15:13:31;22.80;72.10
22456;DHT22;11395;53.204;6.502;2023-04-01T15:19:12;22.70;71.70
22456;DHT22;11395;53.204;6.502;2023-04-01T15:24:22;22.80;71.70
22456;DHT22;11395;53.204;6.502;2023-04-01T15:30:18;23.10;73.70
22456;DHT22;11395;53.204;6.502;2023-04-01T15:35:39;23.30;72.20
22456;DHT22;11395;53.204;6.502;2023-04-01T15:40:53;23.40;68.10
22456;DHT22;11395;53.204;6.502;2023-04-01T15:43:50;23.50;71.20
22456;DHT22;11395;53.204;6.502;2023-04-01T15:46:46;23.60;70.40
22456;DHT22;11395;53.204;6.502;2023-04-01T15:52:05;23.70;67.60
22456;DHT22;11395;53.204;6.502;2023-04-01T15:54:46;23.70;70.70
22456;DHT22;11395;53.204;6.502;2023-04-01T15:57:25;23.70;71.00
22456;DHT22;11395;53.204;6.502;2023-04-01T16:00:11;23.60;67.10
22456;DHT22;11395;53.204;6.502;2023-04-01T16:13:40;23.40;73.50
22456;DHT22;11395;53.204;6.502;2023-04-01T16:24:15;23.10;74.20
22456;DHT22;11395;53.204;6.502;2023-04-01T16:26:54;23.00;72.80
22456;DHT22;11395;53.204;6.502;2023-04-01T16:37:54;22.80;73.30
22456;DHT22;11395;53.204;6.502;2023-04-01T16:41:17;22.70;73.20
22456;DHT22;11395;53.204;6.502;2023-04-01T16:43:42;22.70;74.30
22456;DHT22;11395;53.204;6.502;2023-04-01T16:50:13;22.80;74.10
22456;DHT22;11395;53.204;6.502;2023-04-01T16:53:08;22.80;73.10
22456;DHT22;11395;53.204;6.502;2023-04-01T16:56:15;22.70;73.90
22456;DHT22;11395;53.204;6.502;2023-04-01T17:01:43;22.60;71.30
22456;DHT22;11395;53.204;6.502;2023-04-01T17:04:19;22.60;73.70
22456;DHT22;11395;53.204;6.502;2023-04-01T17:07:05;22.60;75.40
22456;DHT22;11395;53.204;6.502;2023-04-01T17:09:55;22.60;71.40
22456;DHT22;11395;53.204;6.502;2023-04-01T17:12:37;22.70;73.30
22456;DHT22;11395;53.204;6.502;2023-04-01T17:18:15;22.80;72.80
22456;DHT22;11395;53.204;6.502;2023-04-01T17:21:03;22.90;74.20
22456;DHT22;11395;53.204;6.502;2023-04-01T17:26:32;23.00;71.40
22456;DHT22;11395;53.204;6.502;2023-04-01T17:29:28;23.10;71.70
22456;DHT22;11395;53.204;6.502;2023-04-01T17:32:14;23.10;73.20
22456;DHT22;11395;53.204;6.502;2023-04-01T17:34:56;23.10;72.70
22456;DHT22;11395;53.204;6.502;2023-04-01T17:45:41;22.90;67.80
22456;DHT22;11395;53.204;6.502;2023-04-01T18:02:30;22.70;72.80
22456;DHT22;11395;53.204;6.502;2023-04-01T18:05:23;22.70;71.80
22456;DHT22;11395;53.204;6.502;2023-04-01T18:07:59;22.60;71.70
22456;DHT22;11395;53.204;6.502;2023-04-01T18:10:57;22.60;71.10
22456;DHT22;11395;53.204;6.502;2023-04-01T18:22:21;22.80;71.70
22456;DHT22;11395;53.204;6.502;2023-04-01T18:27:40;23.10;70.70
22456;DHT22;11395;53.204;6.502;2023-04-01T18:38:36;23.40;71.10
22456;DHT22;11395;53.204;6.502;2023-04-01T18:41:10;23.30;69.80
22456;DHT22;11395;53.204;6.502;2023-04-01T18:46:39;23.40;70.70
22456;DHT22;11395;53.204;6.502;2023-04-01T18:49:21;23.30;69.40
22456;DHT22;11395;53.204;6.502;2023-04-01T18:52:03;23.30;71.20
22456;DHT22;11395;53.204;6.502;2023-04-01T18:54:44;23.30;71.10
22456;DHT22;11395;53.204;6.502;2023-04-01T18:57:19;23.20;71.20
22456;DHT22;11395;53.204;6.502;2023-04-01T18:59:58;23.20;68.90
22456;DHT22;11395;53.204;6.502;2023-04-01T19:02:41;23.20;71.50
22456;DHT22;11395;53.204;6.502;2023-04-01T19:05:54;23.20;71.40
22456;DHT22;11395;53.204;6.502;2023-04-01T19:28:55;22.90;71.80
22456;DHT22;11395;53.204;6.502;2023-04-01T19:45:23;22.60;70.20
22456;DHT22;11395;53.204;6.502;2023-04-01T19:50:55;22.70;70.70
22456;DHT22;11395;53.204;6.502;2023-04-01T19:53:27;22.70;72.00
22456;DHT22;11395;53.204;6.502;2023-04-01T19:56:22;22.80;69.70
22456;DHT22;11395;53.204;6.502;2023-04-01T19:58:55;22.90;70.00
22456;DHT22;11395;53.204;6.502;2023-04-01T20:01:39;23.10;68.90
22456;DHT22;11395;53.204;6.502;2023-04-01T20:04:20;23.20;69.00
22456;DHT22;11395;53.204;6.502;2023-04-01T20:07:07;23.30;70.70
22456;DHT22;11395;53.204;6.502;2023-04-01T20:14:54;23.50;68.70
22456;DHT22;11395;53.204;6.502;2023-04-01T20:17:25;23.40;69.30
22456;DHT22;11395;53.204;6.502;2023-04-01T20:27:51;23.40;67.00
22456;DHT22;11395;53.204;6.502;2023-04-01T20:49:59;23.10;67.70
22456;DHT22;11395;53.204;6.502;2023-04-01T20:52:55;23.00;65.50
22456;DHT22;11395;53.204;6.502;2023-04-01T21:09:26;22.70;69.80
22456;DHT22;11395;53.204;6.502;2023-04-01T21:12:05;22.60;68.80
22456;DHT22;11395;53.204;6.502;2023-04-01T21:17:17;22.50;68.20
22456;DHT22;11395;53.204;6.502;2023-04-01T21:20:07;22.50;66.80
22456;DHT22;11395;53.204;6.502;2023-04-01T21:29:16;22.80;68.70
22456;DHT22;11395;53.204;6.502;2023-04-01T21:40:09;23.20;68.80
22456;DHT22;11395;53.204;6.502;2023-04-01T21:48:29;23.30;66.80
22456;DHT22;11395;53.204;6.502;2023-04-01T22:05:16;23.20;64.40
22456;DHT22;11395;53.204;6.502;2023-04-01T22:08:29;23.20;66.70
22456;DHT22;11395;53.204;6.502;2023-04-01T22:11:11;23.20;66.80
22456;DHT22;11395;53.204;6.502;2023-04-01T22:13:50;23.10;66.10
22456;DHT22;11395;53.204;6.502;2023-04-01T22:17:21;23.10;68.10
22456;DHT22;11395;53.204;6.502;2023-04-01T22:22:23;22.90;67.20
22456;DHT22;11395;53.204;6.502;2023-04-01T22:30:13;22.80;68.40
22456;DHT22;11395;53.204;6.502;2023-04-01T22:32:47;22.80;66.60
22456;DHT22;11395;53.204;6.502;2023-04-01T22:40:59;22.70;67.70
22456;DHT22;11395;53.204;6.502;2023-04-01T22:43:37;22.60;68.70
22456;DHT22;11395;53.204;6.502;2023-04-01T22:51:54;22.40;67.20
22456;DHT22;11395;53.204;6.502;2023-04-01T22:54:42;22.40;68.00
22456;DHT22;11395;53.204;6.502;2023-04-01T22:57:45;22.30;69.60
22456;DHT22;11395;53.204;6.502;2023-04-01T23:00:34;22.30;68.30
22456;DHT22;11395;53.204;6.502;2023-04-01T23:05:28;22.10;67.70
22456;DHT22;11395;53.204;6.502;2023-04-01T23:11:04;22.10;69.40
22456;DHT22;11395;53.204;6.502;2023-04-01T23:13:36;22.00;68.80
22456;DHT22;11395;53.204;6.502;2023-04-01T23:16:06;21.90;68.90
22456;DHT22;11395;53.204;6.502;2023-04-01T23:18:41;21.90;68.20
22456;DHT22;11395;53.204;6.502;2023-04-01T23:21:26;21.90;69.40
22456;DHT22;11395;53.204;6.502;2023-04-01T23:24:15;21.70;68.00
22456;DHT22;11395;53.204;6.502;2023-04-01T23:27:06;21.70;70.50
22456;DHT22;11395;53.204;6.502;2023-04-01T23:29:37;21.70;70.50
22456;DHT22;11395;53.204;6.502;2023-04-01T23:32:19;21.60;69.90
22456;DHT22;11395;53.204;6.502;2023-04-01T23:34:51;21.50;68.60
22456;DHT22;11395;53.204;6.502;2023-04-01T23:37:18;21.50;69.70
22456;DHT22;11395;53.204;6.502;2023-04-01T23:39:53;21.50;68.90
22456;DHT22;11395;53.204;6.502;2023-04-01T23:44:50;21.40;70.10
22456;DHT22;11395;53.204;6.502;2023-04-01T23:47:37;21.30;70.20
22456;DHT22;11395;53.204;6.502;2023-04-01T23:50:13;21.30;71.50
22456;DHT22;11395;53.204;6.502;2023-04-01T23:52:44;21.30;71.50
22456;DHT22;11395;53.204;6.502;2023-04-01T23:55:29;21.20;70.90
